Time,TemperatureF,DewpointF,PressureIn,WindDirection,WindDirectionDegrees,WindSpeedMPH,WindSpeedGustMPH,Humidity,HourlyPrecipIn,Conditions,Clouds,dailyrainin,SolarRadiationWatts/m^2,SoftwareType,DateUTC
2013-04-27 00:01:00,56.0,23.0,-100.00,SSE,149,10.0,15.0,27,0.00,,,0.06,288.000000,,2013-04-27 00:01:00,
2013-04-27 00:11:00,56.0,23.0,-100.00,SSE,149,10.0,15.0,27,0.00,,,0.06,288.000000,,2013-04-27 00:11:00,
2013-04-27 00:21:00,56.0,23.0,-100.00,SSE,149,10.0,15.0,27,0.00,,,0.06,288.000000,,2013-04-27 00:21:00,
2013-04-27 00:32:00,56.0,23.0,-100.00,SSE,149,10.0,15.0,27,0.00,,,0.06,288.000000,,2013-04-27 00:32:00,
2013-04-27 00:52:00,54.0,27.0,-100.00,North,353,8.0,16.0,35,0.00,,,0.06,168.000000,,2013-04-27 00:52:00,
2013-04-27 01:01:00,54.0,27.0,-100.00,North,353,8.0,16.0,35,0.00,,,0.06,168.000000,,2013-04-27 01:01:00,
2013-04-27 01:12:00,54.0,27.0,-100.00,North,353,8.0,16.0,35,0.00,,,0.06,168.000000,,2013-04-27 01:12:00,
2013-04-27 01:21:00,54.0,27.0,-100.00,North,353,8.0,16.0,35,0.00,,,0.06,168.000000,,2013-04-27 01:21:00,
2013-04-27 01:32:00,54.0,27.0,-100.00,North,353,8.0,16.0,35,0.00,,,0.06,168.000000,,2013-04-27 01:32:00,
2013-04-27 01:52:00,54.0,28.0,-100.00,SE,139,2.0,9.0,37,0.00,,,0.06,49.000000,,2013-04-27 01:52:00,
2013-04-27 02:01:00,54.0,28.0,-100.00,SE,139,2.0,9.0,37,0.00,,,0.06,49.000000,,2013-04-27 02:01:00,
2013-04-27 02:11:00,54.0,28.0,-100.00,SE,139,2.0,9.0,37,0.00,,,0.06,49.000000,,2013-04-27 02:11:00,
2013-04-27 02:22:00,54.0,28.0,-100.00,SE,139,2.0,9.0,37,0.00,,,0.06,49.000000,,2013-04-27 02:22:00,
2013-04-27 02:32:00,54.0,28.0,-100.00,SE,139,2.0,9.0,37,0.00,,,0.06,49.000000,,2013-04-27 02:32:00,
2013-04-27 02:52:00,49.0,29.0,-100.00,East,91,6.0,15.0,46,0.00,,,0.06,3.000000,,2013-04-27 02:52:00,
2013-04-27 03:02:00,49.0,29.0,-100.00,East,91,6.0,15.0,46,0.00,,,0.06,3.000000,,2013-04-27 03:02:00,
2013-04-27 03:11:00,49.0,29.0,-100.00,East,91,6.0,15.0,46,0.00,,,0.06,3.000000,,2013-04-27 03:11:00,
2013-04-27 03:22:00,49.0,29.0,-100.00,East,91,6.0,15.0,46,0.00,,,0.06,3.000000,,2013-04-27 03:22:00,
2013-04-27 03:33:00,49.0,29.0,-100.00,East,91,6.0,15.0,46,0.00,,,0.06,3.000000,,2013-04-27 03:33:00,
2013-04-27 03:53:00,47.0,31.0,-100.00,East,100,8.0,15.0,53,0.00,,,0.03,0.000000,,2013-04-27 03:53:00,
2013-04-27 04:03:00,47.0,31.0,-100.00,East,100,8.0,15.0,53,0.00,,,0.03,0.000000,,2013-04-27 04:03:00,
2013-04-27 04:13:00,47.0,31.0,-100.00,East,100,8.0,15.0,53,0.00,,,0.03,0.000000,,2013-04-27 04:13:00,
2013-04-27 04:23:00,47.0,31.0,-100.00,East,100,8.0,15.0,53,0.00,,,0.03,0.000000,,2013-04-27 04:23:00,
2013-04-27 04:33:00,47.0,31.0,-100.00,East,100,8.0,15.0,53,0.00,,,0.03,0.000000,,2013-04-27 04:33:00,
2013-04-27 04:53:00,46.0,30.0,-100.00,SE,131,6.0,13.0,54,0.00,,,0.03,0.000000,,2013-04-27 04:53:00,
2013-04-27 05:02:00,46.0,30.0,-100.00,SE,131,6.0,13.0,54,0.00,,,0.03,0.000000,,2013-04-27 05:02:00,
2013-04-27 05:12:00,46.0,30.0,-100.00,SE,131,6.0,13.0,54,0.00,,,0.03,0.000000,,2013-04-27 05:12:00,
2013-04-27 05:22:00,46.0,30.0,-100.00,SE,131,6.0,13.0,54,0.00,,,0.03,0.000000,,2013-04-27 05:22:00,
2013-04-27 05:32:00,46.0,30.0,-100.00,SE,131,6.0,13.0,54,0.00,,,0.03,0.000000,,2013-04-27 05:32:00,
2013-04-27 05:52:00,40.0,27.0,-100.00,SSW,212,2.0,9.0,59,0.00,,,0.03,0.000000,,2013-04-27 05:52:00,
2013-04-27 06:02:00,40.0,27.0,-100.00,SSW,212,2.0,9.0,59,0.00,,,0.03,0.000000,,2013-04-27 06:02:00,
2013-04-27 06:12:00,40.0,27.0,-100.00,SSW,212,2.0,9.0,59,0.00,,,0.03,0.000000,,2013-04-27 06:12:00,
2013-04-27 06:22:00,40.0,27.0,-100.00,SSW,212,2.0,9.0,59,0.00,,,0.03,0.000000,,2013-04-27 06:22:00,
2013-04-27 06:32:00,40.0,27.0,-100.00,SSW,212,2.0,9.0,59,0.00,,,0.03,0.000000,,2013-04-27 06:32:00,
2013-04-27 06:52:00,40.0,27.0,-100.00,NE,50,2.0,9.0,60,0.00,,,0.02,0.000000,,2013-04-27 06:52:00,
2013-04-27 07:01:00,40.0,27.0,-100.00,NE,50,2.0,9.0,60,0.00,,,0.02,0.000000,,2013-04-27 07:01:00,
2013-04-27 07:11:00,40.0,27.0,-100.00,NE,50,2.0,9.0,60,0.00,,,0.02,0.000000,,2013-04-27 07:11:00,
2013-04-27 07:21:00,40.0,27.0,-100.00,NE,50,2.0,9.0,60,0.00,,,0.02,0.000000,,2013-04-27 07:21:00,
2013-04-27 07:32:00,40.0,27.0,-100.00,NE,50,2.0,9.0,60,0.00,,,0.02,0.000000,,2013-04-27 07:32:00,
2013-04-27 07:52:00,39.0,27.0,-100.00,North,7,2.0,5.0,61,0.00,,,0.00,0.000000,,2013-04-27 07:52:00,
2013-04-27 08:01:00,39.0,27.0,-100.00,North,7,2.0,5.0,61,0.00,,,0.00,0.000000,,2013-04-27 08:01:00,
2013-04-27 08:11:00,39.0,27.0,-100.00,North,7,2.0,5.0,61,0.00,,,0.00,0.000000,,2013-04-27 08:11:00,
2013-04-27 08:21:00,39.0,27.0,-100.00,North,7,2.0,5.0,61,0.00,,,0.00,0.000000,,2013-04-27 08:21:00,
2013-04-27 08:33:00,39.0,27.0,-100.00,North,7,2.0,5.0,61,0.00,,,0.00,0.000000,,2013-04-27 08:33:00,
2013-04-27 08:52:00,35.0,24.0,-100.00,NE,38,2.0,6.0,65,0.00,,,0.00,0.000000,,2013-04-27 08:52:00,
2013-04-27 09:01:00,35.0,24.0,-100.00,NE,38,2.0,6.0,65,0.00,,,0.00,0.000000,,2013-04-27 09:01:00,
2013-04-27 09:11:00,35.0,24.0,-100.00,NE,38,2.0,6.0,65,0.00,,,0.00,0.000000,,2013-04-27 09:11:00,
2013-04-27 09:21:00,35.0,24.0,-100.00,NE,38,2.0,6.0,65,0.00,,,0.00,0.000000,,2013-04-27 09:21:00,
2013-04-27 09:33:00,35.0,24.0,-100.00,NE,38,2.0,6.0,65,0.00,,,0.00,0.000000,,2013-04-27 09:33:00,
2013-04-27 09:53:00,32.0,24.0,-100.00,SE,143,4.0,8.0,71,0.00,,,0.00,0.000000,,2013-04-27 09:53:00,
2013-04-27 10:02:00,32.0,24.0,-100.00,SE,143,4.0,8.0,71,0.00,,,0.00,0.000000,,2013-04-27 10:02:00,
2013-04-27 10:12:00,32.0,24.0,-100.00,SE,143,4.0,8.0,71,0.00,,,0.00,0.000000,,2013-04-27 10:12:00,
2013-04-27 10:22:00,32.0,24.0,-100.00,SE,143,4.0,8.0,71,0.00,,,0.00,0.000000,,2013-04-27 10:22:00,
2013-04-27 10:32:00,32.0,24.0,-100.00,SE,143,4.0,8.0,71,0.00,,,0.00,0.000000,,2013-04-27 10:32:00,
2013-04-27 10:52:00,32.0,24.0,-100.00,SW,220,2.0,7.0,72,0.00,,,0.00,0.000000,,2013-04-27 10:52:00,
2013-04-27 11:02:00,32.0,24.0,-100.00,SW,220,2.0,7.0,72,0.00,,,0.00,0.000000,,2013-04-27 11:02:00,
2013-04-27 11:12:00,32.0,24.0,-100.00,SW,220,2.0,7.0,72,0.00,,,0.00,0.000000,,2013-04-27 11:12:00,
2013-04-27 11:22:00,32.0,24.0,-100.00,SW,220,2.0,7.0,72,0.00,,,0.00,0.000000,,2013-04-27 11:22:00,
2013-04-27 11:32:00,32.0,24.0,-100.00,SW,220,2.0,7.0,72,0.00,,,0.00,0.000000,,2013-04-27 11:32:00,
2013-04-27 11:52:00,32.0,23.0,-100.00,SSE,163,3.0,6.0,70,0.00,,,0.00,0.000000,,2013-04-27 11:52:00,
2013-04-27 12:01:00,32.0,23.0,-100.00,SSE,163,3.0,6.0,70,0.00,,,0.00,0.000000,,2013-04-27 12:01:00,
2013-04-27 12:11:00,32.0,23.0,-100.00,SSE,163,3.0,6.0,70,0.00,,,0.00,0.000000,,2013-04-27 12:11:00,
2013-04-27 12:22:00,32.0,23.0,-100.00,SSE,163,3.0,6.0,70,0.00,,,0.00,0.000000,,2013-04-27 12:22:00,
2013-04-27 12:32:00,32.0,23.0,-100.00,SSE,163,3.0,6.0,70,0.00,,,0.00,0.000000,,2013-04-27 12:32:00,
2013-04-27 12:52:00,29.0,21.0,-100.00,ESE,103,3.0,5.0,72,0.00,,,0.00,4.000000,,2013-04-27 12:52:00,
2013-04-27 13:02:00,29.0,21.0,-100.00,ESE,103,3.0,5.0,72,0.00,,,0.00,4.000000,,2013-04-27 13:02:00,
2013-04-27 13:11:00,29.0,21.0,-100.00,ESE,103,3.0,5.0,72,0.00,,,0.00,4.000000,,2013-04-27 13:11:00,
2013-04-27 13:21:00,29.0,21.0,-100.00,ESE,103,3.0,5.0,72,0.00,,,0.00,4.000000,,2013-04-27 13:21:00,
2013-04-27 13:32:00,29.0,21.0,-100.00,ESE,103,3.0,5.0,72,0.00,,,0.00,4.000000,,2013-04-27 13:32:00,
2013-04-27 13:52:00,40.0,28.0,-100.00,SSE,155,3.0,4.0,63,0.00,,,0.00,97.000000,,2013-04-27 13:52:00,
2013-04-27 14:02:00,40.0,28.0,-100.00,SSE,155,3.0,4.0,63,0.00,,,0.00,97.000000,,2013-04-27 14:02:00,
2013-04-27 14:11:00,40.0,28.0,-100.00,SSE,155,3.0,4.0,63,0.00,,,0.00,97.000000,,2013-04-27 14:11:00,
2013-04-27 14:21:00,40.0,28.0,-100.00,SSE,155,3.0,4.0,63,0.00,,,0.00,97.000000,,2013-04-27 14:21:00,
2013-04-27 14:31:00,40.0,28.0,-100.00,SSE,155,3.0,4.0,63,0.00,,,0.00,97.000000,,2013-04-27 14:31:00,
2013-04-27 14:52:00,47.0,29.0,-100.00,WNW,297,3.0,4.0,49,0.00,,,0.00,288.000000,,2013-04-27 14:52:00,
2013-04-27 15:01:00,47.0,29.0,-100.00,WNW,297,3.0,4.0,49,0.00,,,0.00,288.000000,,2013-04-27 15:01:00,
2013-04-27 15:12:00,47.0,29.0,-100.00,WNW,297,3.0,4.0,49,0.00,,,0.00,288.000000,,2013-04-27 15:12:00,
2013-04-27 15:22:00,47.0,29.0,-100.00,WNW,297,3.0,4.0,49,0.00,,,0.00,288.000000,,2013-04-27 15:22:00,
2013-04-27 15:33:00,47.0,29.0,-100.00,WNW,297,3.0,4.0,49,0.00,,,0.00,288.000000,,2013-04-27 15:33:00,
2013-04-27 15:53:00,53.0,29.0,-100.00,NW,319,2.0,7.0,39,0.00,,,0.00,484.000000,,2013-04-27 15:53:00,
2013-04-27 16:03:00,53.0,29.0,-100.00,NW,319,2.0,7.0,39,0.00,,,0.00,484.000000,,2013-04-27 16:03:00,
2013-04-27 16:13:00,53.0,29.0,-100.00,NW,319,2.0,7.0,39,0.00,,,0.00,484.000000,,2013-04-27 16:13:00,
2013-04-27 16:22:00,53.0,29.0,-100.00,NW,319,2.0,7.0,39,0.00,,,0.00,484.000000,,2013-04-27 16:22:00,
2013-04-27 16:32:00,53.0,29.0,-100.00,NW,319,2.0,7.0,39,0.00,,,0.00,484.000000,,2013-04-27 16:32:00,
2013-04-27 16:53:00,58.0,28.0,-100.00,West,273,3.0,8.0,32,0.00,,,0.00,667.000000,,2013-04-27 16:53:00,
2013-04-27 17:02:00,58.0,28.0,-100.00,West,273,3.0,8.0,32,0.00,,,0.00,667.000000,,2013-04-27 17:02:00,
2013-04-27 17:12:00,58.0,28.0,-100.00,West,273,3.0,8.0,32,0.00,,,0.00,667.000000,,2013-04-27 17:12:00,
2013-04-27 17:22:00,58.0,28.0,-100.00,West,273,3.0,8.0,32,0.00,,,0.00,667.000000,,2013-04-27 17:22:00,
2013-04-27 17:32:00,58.0,28.0,-100.00,West,273,3.0,8.0,32,0.00,,,0.00,667.000000,,2013-04-27 17:32:00,
2013-04-27 17:53:00,61.0,26.0,-100.00,SW,217,7.0,10.0,26,0.00,,,0.00,818.000000,,2013-04-27 17:53:00,
2013-04-27 18:02:00,61.0,26.0,-100.00,SW,217,7.0,10.0,26,0.00,,,0.00,818.000000,,2013-04-27 18:02:00,
2013-04-27 18:12:00,61.0,26.0,-100.00,SW,217,7.0,10.0,26,0.00,,,0.00,818.000000,,2013-04-27 18:12:00,
2013-04-27 18:22:00,61.0,26.0,-100.00,SW,217,7.0,10.0,26,0.00,,,0.00,818.000000,,2013-04-27 18:22:00,
2013-04-27 18:32:00,61.0,26.0,-100.00,SW,217,7.0,10.0,26,0.00,,,0.00,818.000000,,2013-04-27 18:32:00,
2013-04-27 18:52:00,65.0,16.0,-100.00,North,11,5.0,14.0,15,0.00,,,0.00,920.000000,,2013-04-27 18:52:00,
2013-04-27 19:02:00,65.0,16.0,-100.00,North,11,5.0,14.0,15,0.00,,,0.00,920.000000,,2013-04-27 19:02:00,
2013-04-27 19:11:00,65.0,16.0,-100.00,North,11,5.0,14.0,15,0.00,,,0.00,920.000000,,2013-04-27 19:11:00,
2013-04-27 19:21:00,65.0,16.0,-100.00,North,11,5.0,14.0,15,0.00,,,0.00,920.000000,,2013-04-27 19:21:00,
2013-04-27 19:32:00,65.0,16.0,-100.00,North,11,5.0,14.0,15,0.00,,,0.00,920.000000,,2013-04-27 19:32:00,
2013-04-27 19:53:00,64.0,20.0,-100.00,WSW,247,6.0,16.0,18,0.00,,,0.00,726.000000,,2013-04-27 19:53:00,
2013-04-27 20:02:00,64.0,20.0,-100.00,WSW,247,6.0,16.0,18,0.00,,,0.00,726.000000,,2013-04-27 20:02:00,
2013-04-27 20:11:00,64.0,20.0,-100.00,WSW,247,6.0,16.0,18,0.00,,,0.00,726.000000,,2013-04-27 20:11:00,
2013-04-27 20:21:00,64.0,20.0,-100.00,WSW,247,6.0,16.0,18,0.00,,,0.00,726.000000,,2013-04-27 20:21:00,
2013-04-27 20:32:00,64.0,20.0,-100.00,WSW,247,6.0,16.0,18,0.00,,,0.00,726.000000,,2013-04-27 20:32:00,
2013-04-27 20:52:00,67.0,19.0,-100.00,NW,306,7.0,17.0,16,0.00,,,0.00,874.000000,,2013-04-27 20:52:00,
2013-04-27 21:02:00,67.0,19.0,-100.00,NW,306,7.0,17.0,16,0.00,,,0.00,874.000000,,2013-04-27 21:02:00,
2013-04-27 21:12:00,67.0,19.0,-100.00,NW,306,7.0,17.0,16,0.00,,,0.00,874.000000,,2013-04-27 21:12:00,
2013-04-27 21:21:00,67.0,19.0,-100.00,NW,306,7.0,17.0,16,0.00,,,0.00,874.000000,,2013-04-27 21:21:00,
2013-04-27 21:33:00,67.0,19.0,-100.00,NW,306,7.0,17.0,16,0.00,,,0.00,874.000000,,2013-04-27 21:33:00,
2013-04-27 21:53:00,67.0,19.0,-100.00,WNW,282,7.0,18.0,16,0.00,,,0.00,750.000000,,2013-04-27 21:53:00,
2013-04-27 22:02:00,67.0,19.0,-100.00,WNW,282,7.0,18.0,16,0.00,,,0.00,750.000000,,2013-04-27 22:02:00,
2013-04-27 22:13:00,67.0,19.0,-100.00,WNW,282,7.0,18.0,16,0.00,,,0.00,750.000000,,2013-04-27 22:13:00,
2013-04-27 22:22:00,67.0,19.0,-100.00,WNW,282,7.0,18.0,16,0.00,,,0.00,750.000000,,2013-04-27 22:22:00,
2013-04-27 22:32:00,67.0,19.0,-100.00,WNW,282,7.0,18.0,16,0.00,,,0.00,750.000000,,2013-04-27 22:32:00,
2013-04-27 22:53:00,66.0,17.0,-100.00,SW,231,6.0,22.0,15,0.00,,,0.00,575.000000,,2013-04-27 22:53:00,
2013-04-27 23:02:00,66.0,17.0,-100.00,SW,231,6.0,22.0,15,0.00,,,0.00,575.000000,,2013-04-27 23:02:00,
2013-04-27 23:12:00,66.0,17.0,-100.00,SW,231,6.0,22.0,15,0.00,,,0.00,575.000000,,2013-04-27 23:12:00,
2013-04-27 23:22:00,66.0,17.0,-100.00,SW,231,6.0,22.0,15,0.00,,,0.00,575.000000,,2013-04-27 23:22:00,
2013-04-27 23:32:00,66.0,17.0,-100.00,SW,231,6.0,22.0,15,0.00,,,0.00,575.000000,,2013-04-27 23:32:00,
2013-04-27 23:52:00,65.0,15.0,-100.00,NW,325,8.0,14.0,14,0.00,,,0.00,462.000000,,2013-04-27 23:52:00,